ADDS METAR Data INFO
IDs: Format: Raw Decoded Include TAF

Data at: 1131 UTC 29 May 2017

KLAR 291053Z AUTO 20007KT 10SM BKN075 OVC095 03/02 A3031 RMK AO2 SLP192 T00330017


Page loaded:  11:31 UTC  |   04:31 AM Pacific  |   05:31 AM Mountain  |   06:31 AM Central  |   07:31 AM Eastern

 

ADVISORIES

FORECASTS

FORECASTS

OBSERVATIONS

USER TOOLS

ABOUT US